Dauntless Aviation
Airports Europe Germany
EDSW

Altdorf-Wallburg

Altdorf-Wallburg, GERMANY

Airport Info
Suggest Updated Information for this Airport

Location

Latitude / Longitude: 48°16'11"N / 7°50'31"E
  48°16.188'N / 7°50.532'E
  48.2698 / 7.8422
Satellite photo at:
Airport distance calculator
From:
Weather Reports

METAR

TAF

EDTL
5.8nm NW
TAF EDTL 240558Z 2406/2415 22005KT 9999 BKN020 BECMG 2411/2414 34004KT
LFST
18.2nm NW
TAF LFST 240500Z 2406/2506 29007KT 9999 BKN030 TEMPO 2406/2412 4000 RA BKN014 PROB40 TEMPO 2412/2418 -SHRA SCT025TCU TEMPO 2500/2506 3000 BR BKN007
EDSB
32.3nm N
TAF EDSB 240500Z 2406/2506 25006KT 9999 BKN030 PROB30 TEMPO 2406/2412 4000 RA BKN014 BECMG 2416/2418 VRB03KT BECMG 2422/2424 3500 BR SCT001 BKN005 TEMPO 2500/2506 0200 FG OVC002
Safelog

 

Dauntless Aviation

© 2007-2016 Dauntless Aviation, all rights reserved
Information provided via PilotNav comes from a variety of official and unofficial data sources. As errors are possible, do not use PilotNav for primary flight planning purposes. Verify any information that you receive via PilotNav with current and canonical charts and other official documents. The material in this database is subject to database copyrights held by Dauntless Aviation and may not be copied without the express permission of Dauntless Aviation - licenses for use of part of all of this data are available for purchase; enquire via the Dauntless Aviation helpdesk. A number of mechanisms and markers exist in the database to protect against and identify infringement / copyright. Automated queries against this website are stictly prohibited, and all activity is logged and analyzed.